sensor_id;sensor_type;location;lat;lon;timestamp;P1;durP1;ratioP1;P2;durP2;ratioP2
77876;SDS011;67251;50.844;7.978;2023-07-20T00:01:06;6.65;;;2.78;;
77876;SDS011;67251;50.844;7.978;2023-07-20T00:03:32;6.45;;;2.97;;
77876;SDS011;67251;50.844;7.978;2023-07-20T00:05:57;6.43;;;2.60;;
77876;SDS011;67251;50.844;7.978;2023-07-20T00:08:22;7.50;;;2.85;;
77876;SDS011;67251;50.844;7.978;2023-07-20T00:10:48;5.53;;;2.75;;
77876;SDS011;67251;50.844;7.978;2023-07-20T00:13:13;5.88;;;2.88;;
77876;SDS011;67251;50.844;7.978;2023-07-20T00:15:41;6.70;;;2.80;;
77876;SDS011;67251;50.844;7.978;2023-07-20T00:18:06;7.55;;;2.78;;
77876;SDS011;67251;50.844;7.978;2023-07-20T00:20:32;6.70;;;2.35;;
77876;SDS011;67251;50.844;7.978;2023-07-20T00:22:57;6.25;;;2.60;;
77876;SDS011;67251;50.844;7.978;2023-07-20T00:25:23;7.28;;;3.00;;
77876;SDS011;67251;50.844;7.978;2023-07-20T00:27:49;6.22;;;2.70;;
77876;SDS011;67251;50.844;7.978;2023-07-20T00:30:15;5.43;;;2.92;;
77876;SDS011;67251;50.844;7.978;2023-07-20T00:32:41;6.30;;;3.00;;
77876;SDS011;67251;50.844;7.978;2023-07-20T00:35:08;6.95;;;2.88;;
77876;SDS011;67251;50.844;7.978;2023-07-20T00:37:33;5.90;;;2.47;;
77876;SDS011;67251;50.844;7.978;2023-07-20T00:39:59;6.25;;;2.95;;
77876;SDS011;67251;50.844;7.978;2023-07-20T00:42:24;6.15;;;3.03;;
77876;SDS011;67251;50.844;7.978;2023-07-20T00:44:49;6.68;;;2.63;;
77876;SDS011;67251;50.844;7.978;2023-07-20T00:47:15;6.07;;;2.75;;
77876;SDS011;67251;50.844;7.978;2023-07-20T00:49:40;6.32;;;2.78;;
77876;SDS011;67251;50.844;7.978;2023-07-20T00:52:06;6.40;;;2.65;;
77876;SDS011;67251;50.844;7.978;2023-07-20T00:54:32;5.57;;;2.75;;
77876;SDS011;67251;50.844;7.978;2023-07-20T00:56:58;5.95;;;2.63;;
77876;SDS011;67251;50.844;7.978;2023-07-20T00:59:26;8.32;;;2.92;;
77876;SDS011;67251;50.844;7.978;2023-07-20T01:01:51;5.88;;;2.55;;
77876;SDS011;67251;50.844;7.978;2023-07-20T01:04:17;7.60;;;3.17;;
77876;SDS011;67251;50.844;7.978;2023-07-20T01:06:48;6.15;;;2.92;;
77876;SDS011;67251;50.844;7.978;2023-07-20T01:09:39;10.45;;;2.92;;
77876;SDS011;67251;50.844;7.978;2023-07-20T01:12:19;5.75;;;3.10;;
77876;SDS011;67251;50.844;7.978;2023-07-20T01:14:50;6.72;;;2.95;;
77876;SDS011;67251;50.844;7.978;2023-07-20T01:17:16;6.30;;;3.03;;
77876;SDS011;67251;50.844;7.978;2023-07-20T01:19:42;7.30;;;2.85;;
77876;SDS011;67251;50.844;7.978;2023-07-20T01:24:44;6.60;;;2.88;;
77876;SDS011;67251;50.844;7.978;2023-07-20T01:27:18;6.97;;;2.88;;
77876;SDS011;67251;50.844;7.978;2023-07-20T01:30:03;6.53;;;2.95;;
77876;SDS011;67251;50.844;7.978;2023-07-20T01:32:39;7.18;;;3.03;;
77876;SDS011;67251;50.844;7.978;2023-07-20T01:35:07;6.32;;;2.80;;
77876;SDS011;67251;50.844;7.978;2023-07-20T01:37:35;6.03;;;2.92;;
77876;SDS011;67251;50.844;7.978;2023-07-20T01:40:03;7.18;;;3.05;;
77876;SDS011;67251;50.844;7.978;2023-07-20T01:42:29;6.72;;;2.97;;
77876;SDS011;67251;50.844;7.978;2023-07-20T01:44:55;8.93;;;2.92;;
77876;SDS011;67251;50.844;7.978;2023-07-20T01:49:48;5.93;;;2.85;;
77876;SDS011;67251;50.844;7.978;2023-07-20T01:52:14;7.53;;;2.83;;
77876;SDS011;67251;50.844;7.978;2023-07-20T01:54:40;8.70;;;3.42;;
77876;SDS011;67251;50.844;7.978;2023-07-20T01:57:05;7.70;;;3.47;;
77876;SDS011;67251;50.844;7.978;2023-07-20T01:59:31;7.82;;;2.80;;
77876;SDS011;67251;50.844;7.978;2023-07-20T02:01:56;9.52;;;3.55;;
77876;SDS011;67251;50.844;7.978;2023-07-20T02:04:21;7.40;;;3.10;;
77876;SDS011;67251;50.844;7.978;2023-07-20T02:06:53;7.05;;;3.58;;
77876;SDS011;67251;50.844;7.978;2023-07-20T02:09:19;7.22;;;2.88;;
77876;SDS011;67251;50.844;7.978;2023-07-20T02:11:45;7.57;;;3.35;;
77876;SDS011;67251;50.844;7.978;2023-07-20T02:14:10;5.82;;;3.10;;
77876;SDS011;67251;50.844;7.978;2023-07-20T02:16:35;8.20;;;3.25;;
77876;SDS011;67251;50.844;7.978;2023-07-20T02:19:01;6.78;;;3.55;;
77876;SDS011;67251;50.844;7.978;2023-07-20T02:21:26;6.82;;;3.10;;
77876;SDS011;67251;50.844;7.978;2023-07-20T02:23:51;9.07;;;3.47;;
77876;SDS011;67251;50.844;7.978;2023-07-20T02:26:17;7.25;;;3.35;;
77876;SDS011;67251;50.844;7.978;2023-07-20T02:28:42;8.27;;;3.20;;
77876;SDS011;67251;50.844;7.978;2023-07-20T02:31:07;5.70;;;3.03;;
77876;SDS011;67251;50.844;7.978;2023-07-20T02:33:33;8.32;;;3.50;;
77876;SDS011;67251;50.844;7.978;2023-07-20T02:35:58;7.15;;;3.03;;
77876;SDS011;67251;50.844;7.978;2023-07-20T02:38:23;7.88;;;2.97;;
77876;SDS011;67251;50.844;7.978;2023-07-20T02:40:49;9.23;;;3.35;;
77876;SDS011;67251;50.844;7.978;2023-07-20T02:43:15;8.75;;;3.45;;
77876;SDS011;67251;50.844;7.978;2023-07-20T02:45:40;5.53;;;3.05;;
77876;SDS011;67251;50.844;7.978;2023-07-20T02:48:07;5.55;;;3.10;;
77876;SDS011;67251;50.844;7.978;2023-07-20T02:50:33;8.38;;;3.38;;
77876;SDS011;67251;50.844;7.978;2023-07-20T02:53:00;8.48;;;3.33;;
77876;SDS011;67251;50.844;7.978;2023-07-20T02:55:25;6.65;;;3.17;;
77876;SDS011;67251;50.844;7.978;2023-07-20T02:57:51;6.57;;;3.22;;
77876;SDS011;67251;50.844;7.978;2023-07-20T03:00:16;8.15;;;3.38;;
77876;SDS011;67251;50.844;7.978;2023-07-20T03:02:44;6.97;;;3.15;;
77876;SDS011;67251;50.844;7.978;2023-07-20T03:05:12;7.70;;;3.20;;
77876;SDS011;67251;50.844;7.978;2023-07-20T03:07:38;7.20;;;3.65;;
77876;SDS011;67251;50.844;7.978;2023-07-20T03:10:04;5.82;;;2.85;;
77876;SDS011;67251;50.844;7.978;2023-07-20T03:12:32;8.95;;;3.47;;
77876;SDS011;67251;50.844;7.978;2023-07-20T03:14:59;8.60;;;3.75;;
77876;SDS011;67251;50.844;7.978;2023-07-20T03:17:24;7.25;;;3.08;;
77876;SDS011;67251;50.844;7.978;2023-07-20T03:19:50;7.15;;;3.42;;
77876;SDS011;67251;50.844;7.978;2023-07-20T03:22:15;6.78;;;3.28;;
77876;SDS011;67251;50.844;7.978;2023-07-20T03:24:40;5.53;;;3.10;;
77876;SDS011;67251;50.844;7.978;2023-07-20T03:27:06;8.20;;;3.38;;
77876;SDS011;67251;50.844;7.978;2023-07-20T03:29:32;5.90;;;2.92;;
77876;SDS011;67251;50.844;7.978;2023-07-20T03:31:58;6.85;;;3.38;;
77876;SDS011;67251;50.844;7.978;2023-07-20T03:34:24;7.68;;;3.25;;
77876;SDS011;67251;50.844;7.978;2023-07-20T03:36:50;7.72;;;3.50;;
77876;SDS011;67251;50.844;7.978;2023-07-20T03:39:15;8.48;;;3.25;;
77876;SDS011;67251;50.844;7.978;2023-07-20T03:41:41;7.80;;;3.45;;
77876;SDS011;67251;50.844;7.978;2023-07-20T03:44:06;8.27;;;3.22;;
77876;SDS011;67251;50.844;7.978;2023-07-20T03:46:31;6.78;;;3.08;;
77876;SDS011;67251;50.844;7.978;2023-07-20T03:48:59;8.88;;;3.15;;
77876;SDS011;67251;50.844;7.978;2023-07-20T03:51:24;6.55;;;3.38;;
77876;SDS011;67251;50.844;7.978;2023-07-20T03:53:50;6.32;;;3.40;;
77876;SDS011;67251;50.844;7.978;2023-07-20T03:56:15;8.10;;;3.63;;
77876;SDS011;67251;50.844;7.978;2023-07-20T03:58:40;8.20;;;3.25;;
77876;SDS011;67251;50.844;7.978;2023-07-20T04:01:06;8.18;;;3.05;;
77876;SDS011;67251;50.844;7.978;2023-07-20T04:03:32;9.30;;;3.53;;
77876;SDS011;67251;50.844;7.978;2023-07-20T04:05:57;8.45;;;3.65;;
77876;SDS011;67251;50.844;7.978;2023-07-20T04:08:25;7.70;;;3.60;;
77876;SDS011;67251;50.844;7.978;2023-07-20T04:10:51;10.82;;;3.78;;
77876;SDS011;67251;50.844;7.978;2023-07-20T04:13:17;7.75;;;3.47;;
77876;SDS011;67251;50.844;7.978;2023-07-20T04:15:43;8.93;;;2.95;;
77876;SDS011;67251;50.844;7.978;2023-07-20T04:18:08;7.82;;;3.45;;
77876;SDS011;67251;50.844;7.978;2023-07-20T04:20:33;9.13;;;3.17;;
77876;SDS011;67251;50.844;7.978;2023-07-20T04:22:59;8.32;;;3.55;;
77876;SDS011;67251;50.844;7.978;2023-07-20T04:25:24;7.70;;;3.15;;
77876;SDS011;67251;50.844;7.978;2023-07-20T04:27:50;6.88;;;3.17;;
77876;SDS011;67251;50.844;7.978;2023-07-20T04:30:17;8.20;;;3.15;;
77876;SDS011;67251;50.844;7.978;2023-07-20T04:32:47;7.45;;;3.28;;
77876;SDS011;67251;50.844;7.978;2023-07-20T04:35:16;8.20;;;3.40;;
77876;SDS011;67251;50.844;7.978;2023-07-20T04:37:43;8.75;;;3.58;;
77876;SDS011;67251;50.844;7.978;2023-07-20T04:40:12;6.43;;;3.17;;
77876;SDS011;67251;50.844;7.978;2023-07-20T04:42:40;8.05;;;3.35;;
77876;SDS011;67251;50.844;7.978;2023-07-20T04:45:06;8.18;;;3.30;;
77876;SDS011;67251;50.844;7.978;2023-07-20T04:47:32;7.28;;;3.10;;
77876;SDS011;67251;50.844;7.978;2023-07-20T04:49:57;9.20;;;3.92;;
77876;SDS011;67251;50.844;7.978;2023-07-20T04:52:22;8.68;;;3.38;;
77876;SDS011;67251;50.844;7.978;2023-07-20T04:54:48;11.32;;;3.80;;
77876;SDS011;67251;50.844;7.978;2023-07-20T04:57:13;10.15;;;4.10;;
77876;SDS011;67251;50.844;7.978;2023-07-20T04:59:39;8.70;;;4.03;;
77876;SDS011;67251;50.844;7.978;2023-07-20T05:02:04;8.30;;;4.03;;
77876;SDS011;67251;50.844;7.978;2023-07-20T05:04:29;7.40;;;3.38;;
77876;SDS011;67251;50.844;7.978;2023-07-20T05:06:55;7.63;;;3.78;;
77876;SDS011;67251;50.844;7.978;2023-07-20T05:09:20;8.98;;;3.30;;
77876;SDS011;67251;50.844;7.978;2023-07-20T05:11:46;9.70;;;3.90;;
77876;SDS011;67251;50.844;7.978;2023-07-20T05:14:13;7.00;;;3.80;;
77876;SDS011;67251;50.844;7.978;2023-07-20T05:16:38;10.00;;;4.22;;
77876;SDS011;67251;50.844;7.978;2023-07-20T05:19:04;11.23;;;4.60;;
77876;SDS011;67251;50.844;7.978;2023-07-20T05:21:29;9.77;;;4.90;;
77876;SDS011;67251;50.844;7.978;2023-07-20T05:23:54;10.52;;;4.53;;
77876;SDS011;67251;50.844;7.978;2023-07-20T05:26:20;10.50;;;5.65;;
77876;SDS011;67251;50.844;7.978;2023-07-20T05:28:45;10.95;;;4.95;;
77876;SDS011;67251;50.844;7.978;2023-07-20T05:31:10;13.18;;;5.18;;
77876;SDS011;67251;50.844;7.978;2023-07-20T05:33:36;10.98;;;5.57;;
77876;SDS011;67251;50.844;7.978;2023-07-20T05:36:01;13.35;;;5.97;;
77876;SDS011;67251;50.844;7.978;2023-07-20T05:38:27;12.23;;;6.20;;
77876;SDS011;67251;50.844;7.978;2023-07-20T05:40:52;13.02;;;6.65;;
77876;SDS011;67251;50.844;7.978;2023-07-20T05:43:17;13.80;;;7.03;;
77876;SDS011;67251;50.844;7.978;2023-07-20T05:45:43;13.60;;;6.47;;
77876;SDS011;67251;50.844;7.978;2023-07-20T05:48:09;13.13;;;6.95;;
77876;SDS011;67251;50.844;7.978;2023-07-20T05:50:36;12.95;;;6.63;;
77876;SDS011;67251;50.844;7.978;2023-07-20T05:53:02;15.48;;;6.80;;
77876;SDS011;67251;50.844;7.978;2023-07-20T05:55:28;11.73;;;6.78;;
77876;SDS011;67251;50.844;7.978;2023-07-20T05:57:53;11.90;;;6.68;;
77876;SDS011;67251;50.844;7.978;2023-07-20T06:00:20;13.15;;;7.20;;
77876;SDS011;67251;50.844;7.978;2023-07-20T06:02:51;14.55;;;6.82;;
77876;SDS011;67251;50.844;7.978;2023-07-20T06:05:20;13.63;;;7.57;;
77876;SDS011;67251;50.844;7.978;2023-07-20T06:07:46;12.27;;;6.32;;
77876;SDS011;67251;50.844;7.978;2023-07-20T06:10:11;16.35;;;7.82;;
77876;SDS011;67251;50.844;7.978;2023-07-20T06:12:37;14.68;;;7.20;;
77876;SDS011;67251;50.844;7.978;2023-07-20T06:15:03;13.25;;;7.43;;
77876;SDS011;67251;50.844;7.978;2023-07-20T06:17:29;13.32;;;6.95;;
77876;SDS011;67251;50.844;7.978;2023-07-20T06:19:55;12.93;;;7.07;;
77876;SDS011;67251;50.844;7.978;2023-07-20T06:22:20;15.45;;;7.03;;
77876;SDS011;67251;50.844;7.978;2023-07-20T06:24:45;12.07;;;6.90;;
77876;SDS011;67251;50.844;7.978;2023-07-20T06:27:11;11.23;;;7.43;;
77876;SDS011;67251;50.844;7.978;2023-07-20T06:29:37;12.90;;;6.53;;
77876;SDS011;67251;50.844;7.978;2023-07-20T06:32:03;10.00;;;5.45;;
77876;SDS011;67251;50.844;7.978;2023-07-20T06:34:28;9.23;;;5.85;;
77876;SDS011;67251;50.844;7.978;2023-07-20T06:36:54;8.63;;;5.05;;
77876;SDS011;67251;50.844;7.978;2023-07-20T06:39:20;9.57;;;5.65;;
77876;SDS011;67251;50.844;7.978;2023-07-20T06:41:46;12.20;;;5.47;;
77876;SDS011;67251;50.844;7.978;2023-07-20T06:44:11;8.88;;;4.95;;
77876;SDS011;67251;50.844;7.978;2023-07-20T06:46:37;7.15;;;4.85;;
77876;SDS011;67251;50.844;7.978;2023-07-20T06:49:05;10.75;;;4.57;;
77876;SDS011;67251;50.844;7.978;2023-07-20T06:51:33;9.00;;;4.18;;
77876;SDS011;67251;50.844;7.978;2023-07-20T06:53:58;7.72;;;4.40;;
77876;SDS011;67251;50.844;7.978;2023-07-20T06:56:23;8.73;;;5.00;;
77876;SDS011;67251;50.844;7.978;2023-07-20T06:58:49;8.15;;;4.10;;
77876;SDS011;67251;50.844;7.978;2023-07-20T07:01:14;8.55;;;4.38;;
77876;SDS011;67251;50.844;7.978;2023-07-20T07:03:40;10.15;;;4.18;;
77876;SDS011;67251;50.844;7.978;2023-07-20T07:06:05;9.07;;;4.07;;
77876;SDS011;67251;50.844;7.978;2023-07-20T07:08:30;7.82;;;4.30;;
77876;SDS011;67251;50.844;7.978;2023-07-20T07:10:56;6.15;;;3.13;;
77876;SDS011;67251;50.844;7.978;2023-07-20T07:13:21;8.32;;;3.50;;
77876;SDS011;67251;50.844;7.978;2023-07-20T07:15:46;6.30;;;3.25;;
77876;SDS011;67251;50.844;7.978;2023-07-20T07:18:12;6.22;;;3.08;;
77876;SDS011;67251;50.844;7.978;2023-07-20T07:20:37;6.28;;;3.30;;
77876;SDS011;67251;50.844;7.978;2023-07-20T07:23:03;6.47;;;3.17;;
77876;SDS011;67251;50.844;7.978;2023-07-20T07:25:28;7.20;;;3.10;;
77876;SDS011;67251;50.844;7.978;2023-07-20T07:27:55;5.88;;;3.05;;
77876;SDS011;67251;50.844;7.978;2023-07-20T07:30:21;5.72;;;2.80;;
77876;SDS011;67251;50.844;7.978;2023-07-20T07:32:46;7.93;;;2.78;;
77876;SDS011;67251;50.844;7.978;2023-07-20T07:35:12;7.65;;;3.00;;
77876;SDS011;67251;50.844;7.978;2023-07-20T07:37:37;5.00;;;2.83;;
77876;SDS011;67251;50.844;7.978;2023-07-20T07:40:03;6.57;;;2.88;;
77876;SDS011;67251;50.844;7.978;2023-07-20T07:42:29;7.07;;;3.50;;
77876;SDS011;67251;50.844;7.978;2023-07-20T07:44:54;6.97;;;2.65;;
77876;SDS011;67251;50.844;7.978;2023-07-20T07:47:20;7.95;;;2.83;;
77876;SDS011;67251;50.844;7.978;2023-07-20T07:49:45;5.47;;;2.70;;
77876;SDS011;67251;50.844;7.978;2023-07-20T07:52:11;6.10;;;3.47;;
77876;SDS011;67251;50.844;7.978;2023-07-20T07:54:36;5.95;;;3.15;;
77876;SDS011;67251;50.844;7.978;2023-07-20T07:57:01;5.68;;;3.60;;
77876;SDS011;67251;50.844;7.978;2023-07-20T07:59:27;7.13;;;3.75;;
77876;SDS011;67251;50.844;7.978;2023-07-20T08:01:52;5.82;;;2.55;;
77876;SDS011;67251;50.844;7.978;2023-07-20T08:04:17;5.40;;;2.63;;
77876;SDS011;67251;50.844;7.978;2023-07-20T08:06:43;6.43;;;3.00;;
77876;SDS011;67251;50.844;7.978;2023-07-20T08:09:09;7.38;;;3.40;;
77876;SDS011;67251;50.844;7.978;2023-07-20T08:11:35;5.10;;;3.33;;
77876;SDS011;67251;50.844;7.978;2023-07-20T08:14:00;5.65;;;2.78;;
77876;SDS011;67251;50.844;7.978;2023-07-20T08:16:26;5.88;;;3.00;;
77876;SDS011;67251;50.844;7.978;2023-07-20T08:18:51;5.30;;;3.13;;
77876;SDS011;67251;50.844;7.978;2023-07-20T08:21:18;6.07;;;3.13;;
77876;SDS011;67251;50.844;7.978;2023-07-20T08:23:44;5.15;;;2.80;;
77876;SDS011;67251;50.844;7.978;2023-07-20T08:26:09;6.55;;;3.28;;
77876;SDS011;67251;50.844;7.978;2023-07-20T08:28:35;6.18;;;2.97;;
77876;SDS011;67251;50.844;7.978;2023-07-20T08:31:00;5.35;;;2.75;;
77876;SDS011;67251;50.844;7.978;2023-07-20T08:33:25;6.55;;;3.40;;
77876;SDS011;67251;50.844;7.978;2023-07-20T08:38:20;7.25;;;2.90;;
77876;SDS011;67251;50.844;7.978;2023-07-20T08:40:46;7.07;;;2.92;;
77876;SDS011;67251;50.844;7.978;2023-07-20T08:43:11;5.45;;;2.58;;
77876;SDS011;67251;50.844;7.978;2023-07-20T08:45:38;6.03;;;2.50;;
77876;SDS011;67251;50.844;7.978;2023-07-20T08:48:06;4.68;;;2.38;;
77876;SDS011;67251;50.844;7.978;2023-07-20T08:50:33;5.88;;;2.90;;
77876;SDS011;67251;50.844;7.978;2023-07-20T08:52:59;4.90;;;2.45;;
77876;SDS011;67251;50.844;7.978;2023-07-20T08:55:27;5.40;;;2.55;;
77876;SDS011;67251;50.844;7.978;2023-07-20T08:57:54;4.45;;;2.20;;
77876;SDS011;67251;50.844;7.978;2023-07-20T09:00:21;5.78;;;2.33;;
77876;SDS011;67251;50.844;7.978;2023-07-20T09:02:49;4.22;;;1.90;;
77876;SDS011;67251;50.844;7.978;2023-07-20T09:05:17;4.70;;;1.92;;
77876;SDS011;67251;50.844;7.978;2023-07-20T09:07:43;6.13;;;2.20;;
77876;SDS011;67251;50.844;7.978;2023-07-20T09:10:09;5.32;;;2.75;;
77876;SDS011;67251;50.844;7.978;2023-07-20T09:12:36;6.95;;;2.53;;
77876;SDS011;67251;50.844;7.978;2023-07-20T09:15:03;7.25;;;2.55;;
77876;SDS011;67251;50.844;7.978;2023-07-20T09:17:30;4.85;;;2.45;;
77876;SDS011;67251;50.844;7.978;2023-07-20T09:19:55;4.85;;;2.42;;
77876;SDS011;67251;50.844;7.978;2023-07-20T09:22:21;5.15;;;2.22;;
77876;SDS011;67251;50.844;7.978;2023-07-20T09:24:46;4.15;;;2.25;;
77876;SDS011;67251;50.844;7.978;2023-07-20T09:27:11;5.68;;;2.22;;
77876;SDS011;67251;50.844;7.978;2023-07-20T09:29:55;5.10;;;2.33;;
77876;SDS011;67251;50.844;7.978;2023-07-20T09:32:22;5.30;;;2.38;;
77876;SDS011;67251;50.844;7.978;2023-07-20T09:34:49;4.18;;;2.60;;
77876;SDS011;67251;50.844;7.978;2023-07-20T09:37:25;5.93;;;2.20;;
77876;SDS011;67251;50.844;7.978;2023-07-20T09:39:52;7.07;;;2.40;;
77876;SDS011;67251;50.844;7.978;2023-07-20T09:42:21;4.93;;;3.03;;
77876;SDS011;67251;50.844;7.978;2023-07-20T09:44:47;4.43;;;2.10;;
77876;SDS011;67251;50.844;7.978;2023-07-20T09:47:13;4.57;;;1.90;;
77876;SDS011;67251;50.844;7.978;2023-07-20T09:49:46;4.85;;;2.20;;
77876;SDS011;67251;50.844;7.978;2023-07-20T09:52:12;5.05;;;1.95;;
77876;SDS011;67251;50.844;7.978;2023-07-20T09:54:38;5.03;;;1.88;;
77876;SDS011;67251;50.844;7.978;2023-07-20T09:57:08;4.47;;;1.95;;
77876;SDS011;67251;50.844;7.978;2023-07-20T10:01:59;4.82;;;2.10;;
77876;SDS011;67251;50.844;7.978;2023-07-20T10:04:30;4.30;;;2.08;;
77876;SDS011;67251;50.844;7.978;2023-07-20T10:06:56;3.75;;;1.95;;
77876;SDS011;67251;50.844;7.978;2023-07-20T10:09:25;4.40;;;2.10;;
77876;SDS011;67251;50.844;7.978;2023-07-20T10:11:52;3.90;;;2.00;;
77876;SDS011;67251;50.844;7.978;2023-07-20T10:14:20;4.35;;;1.90;;
77876;SDS011;67251;50.844;7.978;2023-07-20T10:16:53;4.55;;;2.10;;
77876;SDS011;67251;50.844;7.978;2023-07-20T10:19:23;3.60;;;2.00;;
77876;SDS011;67251;50.844;7.978;2023-07-20T10:22:03;4.60;;;1.90;;
77876;SDS011;67251;50.844;7.978;2023-07-20T10:24:35;4.20;;;1.70;;
77876;SDS011;67251;50.844;7.978;2023-07-20T10:27:02;4.22;;;1.70;;
77876;SDS011;67251;50.844;7.978;2023-07-20T10:29:27;3.85;;;1.48;;
77876;SDS011;67251;50.844;7.978;2023-07-20T10:31:54;4.15;;;1.77;;
77876;SDS011;67251;50.844;7.978;2023-07-20T10:34:20;3.58;;;1.63;;
77876;SDS011;67251;50.844;7.978;2023-07-20T10:36:47;4.82;;;1.52;;
77876;SDS011;67251;50.844;7.978;2023-07-20T10:39:22;4.57;;;1.92;;
77876;SDS011;67251;50.844;7.978;2023-07-20T10:42:02;3.40;;;1.80;;
77876;SDS011;67251;50.844;7.978;2023-07-20T10:44:31;3.97;;;1.75;;
77876;SDS011;67251;50.844;7.978;2023-07-20T10:47:00;3.58;;;1.70;;
77876;SDS011;67251;50.844;7.978;2023-07-20T10:49:27;4.20;;;1.77;;
77876;SDS011;67251;50.844;7.978;2023-07-20T10:51:56;3.80;;;1.63;;
77876;SDS011;67251;50.844;7.978;2023-07-20T10:56:49;4.10;;;1.98;;
77876;SDS011;67251;50.844;7.978;2023-07-20T10:59:19;4.03;;;1.77;;
77876;SDS011;67251;50.844;7.978;2023-07-20T11:01:46;4.18;;;1.60;;
77876;SDS011;67251;50.844;7.978;2023-07-20T11:04:14;4.05;;;1.77;;
77876;SDS011;67251;50.844;7.978;2023-07-20T11:06:43;3.50;;;1.70;;
77876;SDS011;67251;50.844;7.978;2023-07-20T11:11:47;3.78;;;1.70;;
77876;SDS011;67251;50.844;7.978;2023-07-20T11:14:20;6.82;;;2.20;;
77876;SDS011;67251;50.844;7.978;2023-07-20T11:16:48;5.35;;;1.88;;
77876;SDS011;67251;50.844;7.978;2023-07-20T11:19:27;4.32;;;1.67;;
77876;SDS011;67251;50.844;7.978;2023-07-20T11:21:56;3.40;;;1.92;;
77876;SDS011;67251;50.844;7.978;2023-07-20T11:24:22;4.10;;;1.90;;
77876;SDS011;67251;50.844;7.978;2023-07-20T11:26:49;3.78;;;1.50;;
77876;SDS011;67251;50.844;7.978;2023-07-20T11:29:21;3.72;;;1.73;;
77876;SDS011;67251;50.844;7.978;2023-07-20T11:31:50;4.50;;;1.30;;
77876;SDS011;67251;50.844;7.978;2023-07-20T11:34:19;3.25;;;1.50;;
77876;SDS011;67251;50.844;7.978;2023-07-20T11:36:47;4.28;;;1.75;;
77876;SDS011;67251;50.844;7.978;2023-07-20T11:39:14;3.65;;;1.60;;
77876;SDS011;67251;50.844;7.978;2023-07-20T11:41:44;3.78;;;1.80;;
77876;SDS011;67251;50.844;7.978;2023-07-20T11:44:18;3.50;;;1.48;;
77876;SDS011;67251;50.844;7.978;2023-07-20T11:46:58;3.40;;;1.45;;
77876;SDS011;67251;50.844;7.978;2023-07-20T11:49:39;3.10;;;1.38;;
77876;SDS011;67251;50.844;7.978;2023-07-20T11:52:10;3.97;;;1.50;;
77876;SDS011;67251;50.844;7.978;2023-07-20T11:54:40;3.80;;;1.38;;
77876;SDS011;67251;50.844;7.978;2023-07-20T11:57:06;3.90;;;1.38;;
77876;SDS011;67251;50.844;7.978;2023-07-20T11:59:32;3.47;;;1.50;;
77876;SDS011;67251;50.844;7.978;2023-07-20T12:02:02;3.10;;;1.40;;
77876;SDS011;67251;50.844;7.978;2023-07-20T12:04:28;4.57;;;1.67;;
77876;SDS011;67251;50.844;7.978;2023-07-20T12:06:57;2.78;;;1.23;;
77876;SDS011;67251;50.844;7.978;2023-07-20T12:09:23;3.40;;;1.30;;
77876;SDS011;67251;50.844;7.978;2023-07-20T12:11:49;4.20;;;1.40;;
77876;SDS011;67251;50.844;7.978;2023-07-20T12:14:14;3.78;;;1.48;;
77876;SDS011;67251;50.844;7.978;2023-07-20T12:16:40;5.82;;;1.83;;
77876;SDS011;67251;50.844;7.978;2023-07-20T12:19:10;4.70;;;1.55;;
77876;SDS011;67251;50.844;7.978;2023-07-20T12:21:38;3.33;;;1.35;;
77876;SDS011;67251;50.844;7.978;2023-07-20T12:24:07;5.05;;;1.40;;
77876;SDS011;67251;50.844;7.978;2023-07-20T12:26:36;3.83;;;1.60;;
77876;SDS011;67251;50.844;7.978;2023-07-20T12:29:02;4.05;;;1.42;;
77876;SDS011;67251;50.844;7.978;2023-07-20T12:31:28;5.70;;;1.60;;
77876;SDS011;67251;50.844;7.978;2023-07-20T12:33:56;4.32;;;1.55;;
77876;SDS011;67251;50.844;7.978;2023-07-20T12:36:22;4.85;;;1.70;;
77876;SDS011;67251;50.844;7.978;2023-07-20T12:38:48;3.63;;;1.58;;
77876;SDS011;67251;50.844;7.978;2023-07-20T12:41:13;4.28;;;1.50;;
77876;SDS011;67251;50.844;7.978;2023-07-20T12:43:42;3.92;;;1.50;;
77876;SDS011;67251;50.844;7.978;2023-07-20T12:46:11;3.22;;;1.25;;
77876;SDS011;67251;50.844;7.978;2023-07-20T12:48:38;4.80;;;1.48;;
77876;SDS011;67251;50.844;7.978;2023-07-20T12:51:06;4.40;;;1.50;;
77876;SDS011;67251;50.844;7.978;2023-07-20T12:53:32;3.10;;;1.30;;
77876;SDS011;67251;50.844;7.978;2023-07-20T12:55:59;3.35;;;1.23;;
77876;SDS011;67251;50.844;7.978;2023-07-20T12:58:25;3.67;;;1.50;;
77876;SDS011;67251;50.844;7.978;2023-07-20T13:00:50;3.28;;;1.50;;
77876;SDS011;67251;50.844;7.978;2023-07-20T13:03:16;3.83;;;1.25;;
77876;SDS011;67251;50.844;7.978;2023-07-20T13:05:43;4.60;;;1.55;;
77876;SDS011;67251;50.844;7.978;2023-07-20T13:08:09;4.82;;;1.58;;
77876;SDS011;67251;50.844;7.978;2023-07-20T13:10:34;4.15;;;1.45;;
77876;SDS011;67251;50.844;7.978;2023-07-20T13:13:00;3.30;;;1.40;;
77876;SDS011;67251;50.844;7.978;2023-07-20T13:15:30;5.28;;;1.80;;
77876;SDS011;67251;50.844;7.978;2023-07-20T13:17:59;4.15;;;1.40;;
77876;SDS011;67251;50.844;7.978;2023-07-20T13:20:25;3.55;;;1.38;;
77876;SDS011;67251;50.844;7.978;2023-07-20T13:22:52;3.03;;;1.25;;
77876;SDS011;67251;50.844;7.978;2023-07-20T13:25:18;4.43;;;1.60;;
77876;SDS011;67251;50.844;7.978;2023-07-20T13:27:43;3.85;;;1.40;;
77876;SDS011;67251;50.844;7.978;2023-07-20T13:30:09;4.60;;;1.50;;
77876;SDS011;67251;50.844;7.978;2023-07-20T13:32:41;4.22;;;1.63;;
77876;SDS011;67251;50.844;7.978;2023-07-20T13:35:07;5.20;;;1.40;;
77876;SDS011;67251;50.844;7.978;2023-07-20T13:37:32;3.53;;;1.48;;
77876;SDS011;67251;50.844;7.978;2023-07-20T13:39:58;3.50;;;1.48;;
77876;SDS011;67251;50.844;7.978;2023-07-20T13:42:23;3.88;;;1.48;;
77876;SDS011;67251;50.844;7.978;2023-07-20T13:44:49;3.70;;;1.40;;
77876;SDS011;67251;50.844;7.978;2023-07-20T13:47:14;2.97;;;1.33;;
77876;SDS011;67251;50.844;7.978;2023-07-20T13:49:40;3.85;;;1.33;;
77876;SDS011;67251;50.844;7.978;2023-07-20T13:52:06;4.85;;;1.50;;
77876;SDS011;67251;50.844;7.978;2023-07-20T13:54:31;3.47;;;1.30;;
77876;SDS011;67251;50.844;7.978;2023-07-20T13:56:57;3.95;;;1.45;;
77876;SDS011;67251;50.844;7.978;2023-07-20T13:59:22;2.80;;;1.10;;
77876;SDS011;67251;50.844;7.978;2023-07-20T14:01:48;3.63;;;1.10;;
77876;SDS011;67251;50.844;7.978;2023-07-20T14:04:14;3.38;;;1.23;;
77876;SDS011;67251;50.844;7.978;2023-07-20T14:06:39;2.80;;;1.20;;
77876;SDS011;67251;50.844;7.978;2023-07-20T14:09:05;2.40;;;0.93;;
77876;SDS011;67251;50.844;7.978;2023-07-20T14:11:30;2.92;;;1.20;;
77876;SDS011;67251;50.844;7.978;2023-07-20T14:13:55;3.00;;;1.13;;
77876;SDS011;67251;50.844;7.978;2023-07-20T14:16:23;2.88;;;1.00;;
77876;SDS011;67251;50.844;7.978;2023-07-20T14:18:49;2.63;;;1.08;;
77876;SDS011;67251;50.844;7.978;2023-07-20T14:21:15;3.47;;;1.30;;
77876;SDS011;67251;50.844;7.978;2023-07-20T14:23:41;3.15;;;1.10;;
77876;SDS011;67251;50.844;7.978;2023-07-20T14:26:07;4.68;;;1.35;;
77876;SDS011;67251;50.844;7.978;2023-07-20T14:28:34;3.08;;;1.13;;
77876;SDS011;67251;50.844;7.978;2023-07-20T14:31:00;3.38;;;1.55;;
77876;SDS011;67251;50.844;7.978;2023-07-20T14:33:25;3.08;;;1.20;;
77876;SDS011;67251;50.844;7.978;2023-07-20T14:35:51;3.40;;;1.30;;
77876;SDS011;67251;50.844;7.978;2023-07-20T14:38:16;3.80;;;1.33;;
77876;SDS011;67251;50.844;7.978;2023-07-20T14:40:42;3.20;;;1.27;;
77876;SDS011;67251;50.844;7.978;2023-07-20T14:43:08;3.53;;;1.20;;
77876;SDS011;67251;50.844;7.978;2023-07-20T14:45:33;3.20;;;1.20;;
77876;SDS011;67251;50.844;7.978;2023-07-20T14:47:58;3.60;;;1.20;;
77876;SDS011;67251;50.844;7.978;2023-07-20T14:50:24;3.40;;;1.20;;
77876;SDS011;67251;50.844;7.978;2023-07-20T14:52:49;3.13;;;1.35;;
77876;SDS011;67251;50.844;7.978;2023-07-20T14:55:15;2.65;;;1.10;;
77876;SDS011;67251;50.844;7.978;2023-07-20T14:57:40;2.92;;;1.00;;